Time;durP1;ratioP1;P1;durP2;ratioP2;P2;SDS_P1;SDS_P2;PMS_P1;PMS_P2;Temp;Humidity;BMP_temperature;BMP_pressure;BME280_temperature;BME280_humidity;BME280_pressure;Samples;Min_cycle;Max_cycle;Signal;HPM_P1;HPM_P2
2023/07/29 00:01:13;;;;;;;;;;;;;;;13.28;75.40;100467.24;108477;1267;59907;-88
2023/07/29 00:03:55;;;;;;;;;;;;;;;13.25;75.45;100468.96;108531;1267;76132;-88
2023/07/29 00:06:43;;;;;;;;;;;;;;;13.21;75.59;100467.53;108428;1268;125285;-87
2023/07/29 00:09:30;;;;;;;;;;;;;;;13.18;75.61;100467.50;108425;1268;71615;-89
2023/07/29 00:12:04;;;;;;;;;;;;;;;13.15;75.77;100462.54;108286;1268;125230;-88
2023/07/29 00:14:33;;;;;;;;;;;;;;;13.14;76.03;100467.64;108453;1268;59967;-87
2023/07/29 00:17:06;;;;;;;;;;;;;;;13.14;76.26;100467.98;108276;1268;126606;-89
2023/07/29 00:19:44;;;;;;;;;;;;;;;13.15;76.62;100468.70;108427;1267;66315;-89
2023/07/29 00:22:22;;;;;;;;;;;;;;;13.20;77.13;100472.98;108444;1268;73611;-90
2023/07/29 00:24:59;;;;;;;;;;;;;;;13.25;77.40;100472.14;108368;1268;125247;-87
2023/07/29 00:27:33;;;;;;;;;;;;;;;13.30;77.67;100470.09;108454;1268;60163;-89
2023/07/29 00:30:22;;;;;;;;;;;;;;;13.34;77.78;100471.56;108353;1268;125433;-89
2023/07/29 00:32:49;;;;;;;;;;;;;;;13.38;78.09;100474.77;108545;1267;65793;-89
2023/07/29 00:35:19;;;;;;;;;;;;;;;13.41;78.26;100479.55;108461;1266;125786;-87
2023/07/29 00:37:49;;;;;;;;;;;;;;;13.43;78.35;100477.63;108683;1267;60179;-89
2023/07/29 00:40:36;;;;;;;;;;;;;;;13.46;78.39;100479.24;108676;1267;60031;-88
2023/07/29 00:43:13;;;;;;;;;;;;;;;13.48;78.42;100482.61;108570;1262;75535;-89
2023/07/29 00:45:42;;;;;;;;;;;;;;;13.49;78.57;100480.31;108869;1262;65908;-87
2023/07/29 00:48:10;;;;;;;;;;;;;;;13.50;78.49;100481.75;108707;1262;124315;-87
2023/07/29 00:50:37;;;;;;;;;;;;;;;13.50;78.52;100478.58;108738;1263;59782;-84
2023/07/29 00:53:04;;;;;;;;;;;;;;;13.51;78.55;100481.92;108604;1262;124407;-86
2023/07/29 00:55:33;;;;;;;;;;;;;;;13.50;78.59;100479.10;108726;1262;74311;-87
2023/07/29 00:58:01;;;;;;;;;;;;;;;13.50;78.61;100481.23;108756;1260;65817;-87
2023/07/29 01:00:40;;;;;;;;;;;;;;;13.51;78.73;100480.16;108786;1260;124360;-87
2023/07/29 01:03:08;;;;;;;;;;;;;;;13.52;78.71;100484.05;108898;1257;59740;-86
2023/07/29 01:05:55;;;;;;;;;;;;;;;13.51;78.80;100484.74;108715;1261;124006;-86
2023/07/29 01:08:30;;;;;;;;;;;;;;;13.52;78.90;100485.46;108855;1260;74257;-86
2023/07/29 01:11:17;;;;;;;;;;;;;;;13.52;78.84;100486.52;108658;1266;125468;-86
2023/07/29 01:13:58;;;;;;;;;;;;;;;13.51;78.88;100487.04;108872;1264;72685;-86
2023/07/29 01:16:38;;;;;;;;;;;;;;;13.49;78.74;100485.63;108767;1260;60070;-84
2023/07/29 01:19:19;;;;;;;;;;;;;;;13.47;78.70;100486.30;108906;1260;59785;-86
2023/07/29 01:21:55;;;;;;;;;;;;;;;13.44;78.71;100488.20;108795;1262;74010;-87
2023/07/29 01:24:29;;;;;;;;;;;;;;;13.42;78.73;100486.97;108659;1260;125289;-85
2023/07/29 01:27:05;;;;;;;;;;;;;;;13.40;78.72;100483.95;108670;1260;74165;-84
2023/07/29 01:29:34;;;;;;;;;;;;;;;13.41;78.87;100479.38;108700;1260;125220;-87
2023/07/29 01:34:59;;;;;;;;;;;;;;;13.40;78.89;100482.89;108723;1260;125329;-86
2023/07/29 01:37:30;;;;;;;;;;;;;;;13.39;78.88;100486.23;108762;1260;66987;-88
2023/07/29 01:40:12;;;;;;;;;;;;;;;13.38;78.98;100486.58;108755;1261;73907;-89
2023/07/29 01:42:39;;;;;;;;;;;;;;;13.39;79.07;100484.64;108631;1260;125751;-86
2023/07/29 01:45:07;;;;;;;;;;;;;;;13.39;79.06;100482.01;108731;1262;59803;-88
2023/07/29 01:47:35;;;;;;;;;;;;;;;13.39;79.13;100480.77;108693;1261;125240;-86
2023/07/29 01:50:03;;;;;;;;;;;;;;;13.38;79.13;100481.12;108805;1260;65536;-89
2023/07/29 01:52:39;;;;;;;;;;;;;;;13.39;79.33;100487.81;108797;1260;72802;-86
2023/07/29 01:55:08;;;;;;;;;;;;;;;13.40;79.36;100490.29;108842;1260;59698;-86
2023/07/29 01:57:37;;;;;;;;;;;;;;;13.42;79.50;100490.31;108814;1260;59928;-84
2023/07/29 02:00:12;;;;;;;;;;;;;;;13.43;79.58;100490.67;108773;1260;125335;-88
2023/07/29 02:02:43;;;;;;;;;;;;;;;13.44;79.63;100491.56;108716;1261;65837;-88
2023/07/29 02:05:22;;;;;;;;;;;;;;;13.45;79.61;100493.16;108589;1260;125811;-88
2023/07/29 02:08:08;;;;;;;;;;;;;;;13.46;79.56;100496.52;108725;1260;59974;-86
2023/07/29 02:10:46;;;;;;;;;;;;;;;13.47;79.66;100494.05;108752;1260;59891;-88
2023/07/29 02:13:15;;;;;;;;;;;;;;;13.47;79.57;100495.29;108773;1260;76662;-88
2023/07/29 02:15:42;;;;;;;;;;;;;;;13.46;79.60;100492.65;108698;1260;67104;-86
2023/07/29 02:18:09;;;;;;;;;;;;;;;13.45;79.52;100492.63;108703;1261;125323;-86
2023/07/29 02:20:39;;;;;;;;;;;;;;;13.44;79.46;100498.09;108810;1260;59835;-85
2023/07/29 02:23:06;;;;;;;;;;;;;;;13.43;79.53;100500.55;108729;1260;125818;-89
2023/07/29 02:25:35;;;;;;;;;;;;;;;13.40;79.50;100504.75;108695;1260;75399;-88
2023/07/29 02:28:03;;;;;;;;;;;;;;;13.40;79.48;100508.44;108621;1260;67892;-89
2023/07/29 02:30:31;;;;;;;;;;;;;;;13.38;79.45;100514.61;108564;1260;125724;-89
2023/07/29 02:33:01;;;;;;;;;;;;;;;13.37;79.38;100518.81;108716;1260;60410;-85
2023/07/29 02:35:28;;;;;;;;;;;;;;;13.35;79.30;100518.97;108664;1260;125460;-86
2023/07/29 02:37:56;;;;;;;;;;;;;;;13.33;79.39;100518.96;108762;1260;74146;-86
2023/07/29 02:40:26;;;;;;;;;;;;;;;13.31;79.40;100514.52;108736;1260;67052;-89
2023/07/29 02:42:53;;;;;;;;;;;;;;;13.29;79.33;100522.58;108677;1260;125274;-87
2023/07/29 02:45:26;;;;;;;;;;;;;;;13.27;79.29;100522.38;108654;1260;59801;-84
2023/07/29 02:47:53;;;;;;;;;;;;;;;13.26;79.32;100520.27;108602;1262;125919;-88
2023/07/29 02:50:34;;;;;;;;;;;;;;;13.26;79.35;100523.08;108758;1260;74278;-84
2023/07/29 02:53:03;;;;;;;;;;;;;;;13.26;79.36;100519.55;108707;1260;125379;-87
2023/07/29 02:55:33;;;;;;;;;;;;;;;13.25;79.36;100523.59;108707;1260;71584;-87
2023/07/29 02:58:05;;;;;;;;;;;;;;;13.24;79.30;100520.77;108768;1260;60197;-87
2023/07/29 03:00:32;;;;;;;;;;;;;;;13.23;79.31;100524.81;108685;1260;125226;-88
2023/07/29 03:03:00;;;;;;;;;;;;;;;13.25;79.32;100529.06;108697;1264;74192;-88
2023/07/29 03:05:34;;;;;;;;;;;;;;;13.24;79.24;100530.64;108612;1260;125407;-84
2023/07/29 03:08:02;;;;;;;;;;;;;;;13.25;79.29;100534.52;108708;1260;71446;-84
2023/07/29 03:10:51;;;;;;;;;;;;;;;13.26;79.38;100536.83;108785;1260;59879;-87
2023/07/29 03:13:18;;;;;;;;;;;;;;;13.27;79.35;100538.43;108814;1260;60264;-86
2023/07/29 03:15:48;;;;;;;;;;;;;;;13.28;79.30;100541.27;108773;1261;76060;-88
2023/07/29 03:18:19;;;;;;;;;;;;;;;13.31;79.34;100548.36;108616;1260;124216;-85
2023/07/29 03:20:55;;;;;;;;;;;;;;;13.34;79.32;100548.05;108778;1260;71461;-85
2023/07/29 03:23:25;;;;;;;;;;;;;;;13.37;79.33;100547.02;108616;1262;125606;-85
2023/07/29 03:26:00;;;;;;;;;;;;;;;13.41;79.29;100543.00;108797;1260;60272;-85
2023/07/29 03:28:28;;;;;;;;;;;;;;;13.47;79.32;100545.17;108603;1260;75506;-85
2023/07/29 03:31:01;;;;;;;;;;;;;;;13.53;79.30;100541.71;108758;1261;125269;-88
2023/07/29 03:33:29;;;;;;;;;;;;;;;13.61;79.15;100544.25;108771;1260;72738;-89
2023/07/29 03:35:56;;;;;;;;;;;;;;;13.70;79.22;100542.22;108643;1260;125135;-88
2023/07/29 03:38:23;;;;;;;;;;;;;;;13.81;79.26;100542.84;108775;1260;60093;-85
2023/07/29 03:40:56;;;;;;;;;;;;;;;13.99;79.45;100541.94;108627;1260;125223;-83
2023/07/29 03:43:24;;;;;;;;;;;;;;;14.63;81.18;100543.39;108776;1261;66985;-84
2023/07/29 03:45:52;;;;;;;;;;;;;;;15.80;82.11;100540.55;108700;1260;72709;-84
2023/07/29 03:48:25;;;;;;;;;;;;;;;16.98;81.17;100541.39;108603;1260;125493;-86
2023/07/29 03:50:58;;;;;;;;;;;;;;;18.13;79.61;100540.80;108699;1260;59940;-83
2023/07/29 03:53:25;;;;;;;;;;;;;;;19.17;77.55;100545.34;108591;1260;124721;-87
2023/07/29 03:55:58;;;;;;;;;;;;;;;20.12;76.00;100548.70;108687;1260;65757;-84
2023/07/29 03:58:32;;;;;;;;;;;;;;;21.06;74.07;100548.33;108679;1260;72609;-89
2023/07/29 04:01:02;;;;;;;;;;;;;;;21.98;72.36;100542.48;108565;1260;123360;-86
2023/07/29 04:03:29;;;;;;;;;;;;;;;22.86;70.73;100541.71;108588;1262;59834;-89
2023/07/29 04:05:56;;;;;;;;;;;;;;;23.70;69.06;100542.38;108574;1262;123934;-88
2023/07/29 04:08:26;;;;;;;;;;;;;;;24.49;67.49;100541.34;108577;1263;67088;-87
2023/07/29 04:11:05;;;;;;;;;;;;;;;25.31;65.73;100542.79;108549;1262;124485;-87
2023/07/29 04:13:37;;;;;;;;;;;;;;;26.09;64.19;100542.85;108675;1262;60224;-86
2023/07/29 04:16:10;;;;;;;;;;;;;;;26.80;62.46;100547.83;108772;1261;60163;-87
2023/07/29 04:18:43;;;;;;;;;;;;;;;27.52;61.03;100551.68;108485;1262;124358;-86
2023/07/29 04:21:12;;;;;;;;;;;;;;;28.32;59.77;100550.04;108701;1262;67387;-86
2023/07/29 04:23:40;;;;;;;;;;;;;;;29.04;58.22;100551.85;108585;1262;124841;-88
2023/07/29 04:26:08;;;;;;;;;;;;;;;29.73;56.72;100554.13;108691;1262;59990;-89
2023/07/29 04:28:38;;;;;;;;;;;;;;;30.33;55.29;100549.34;108511;1264;59881;-85
2023/07/29 04:31:16;;;;;;;;;;;;;;;31.05;54.07;100549.78;108684;1262;123244;-88
2023/07/29 04:34:02;;;;;;;;;;;;;;;31.74;52.31;100554.36;108772;1261;60310;-90
2023/07/29 04:36:57;;;;;;;;;;;;;;;32.44;50.65;100551.27;108716;1261;124408;-86
2023/07/29 04:39:30;;;;;;;;;;;;;;;32.93;49.20;100551.86;108677;1262;59908;-86
2023/07/29 04:42:03;;;;;;;;;;;;;;;33.52;48.14;100550.51;108770;1262;125711;-88
2023/07/29 04:44:30;;;;;;;;;;;;;;;34.17;46.77;100548.16;108676;1263;67004;-88
2023/07/29 04:50:38;;;;;;;;;;;;;;;35.30;44.21;100550.13;108838;1263;62774;-90
2023/07/29 04:53:07;;;;;;;;;;;;;;;35.92;43.12;100546.48;108676;1262;124739;-88
2023/07/29 04:59:02;;;;;;;;;;;;;;;36.69;40.92;100547.14;108804;1261;124580;-87
2023/07/29 05:01:31;;;;;;;;;;;;;;;36.77;39.97;100542.58;108927;1261;59777;-90
2023/07/29 05:04:31;;;;;;;;;;;;;;;36.82;39.41;100542.89;108801;1260;62558;-90
2023/07/29 05:07:30;;;;;;;;;;;;;;;36.94;38.65;100543.72;108720;1260;124825;-91
2023/07/29 05:10:50;;;;;;;;;;;;;;;37.11;37.97;100545.50;108838;1260;59831;-88
2023/07/29 05:19:52;;;;;;;;;;;;;;;37.28;36.08;100549.59;108827;1260;62778;-86
2023/07/29 05:25:42;;;;;;;;;;;;;;;36.48;35.58;100547.88;108918;1260;59815;-90
2023/07/29 05:31:31;;;;;;;;;;;;;;;35.65;35.84;100545.45;108792;1260;69237;-89
2023/07/29 05:34:28;;;;;;;;;;;;;;;35.41;35.79;100544.88;108833;1260;64125;-86
2023/07/29 05:47:21;;;;;;;;;;;;;;;33.77;35.02;100543.02;108816;1260;124587;-87
2023/07/29 05:49:49;;;;;;;;;;;;;;;32.14;35.89;100550.23;108748;1260;64987;-87
2023/07/29 05:52:17;;;;;;;;;;;;;;;30.90;36.91;100552.71;108814;1261;59775;-86
2023/07/29 05:54:45;;;;;;;;;;;;;;;29.84;37.95;100555.80;108692;1261;124400;-85
2023/07/29 05:57:12;;;;;;;;;;;;;;;28.89;38.75;100556.80;108863;1260;65333;-85
2023/07/29 06:00:01;;;;;;;;;;;;;;;27.96;39.91;100562.32;108641;1261;124520;-86
2023/07/29 06:02:34;;;;;;;;;;;;;;;27.10;40.92;100565.72;108732;1260;72993;-86
2023/07/29 06:05:04;;;;;;;;;;;;;;;26.48;41.73;100562.93;108808;1260;59778;-86
2023/07/29 06:07:33;;;;;;;;;;;;;;;25.85;42.43;100566.69;108620;1260;184060;-84
2023/07/29 06:10:00;;;;;;;;;;;;;;;25.36;43.47;100568.27;108704;1260;74341;-88
2023/07/29 06:12:34;;;;;;;;;;;;;;;25.02;44.19;100570.08;108431;1262;124490;-87
2023/07/29 06:15:03;;;;;;;;;;;;;;;24.66;44.84;100568.20;108670;1263;72480;-86
2023/07/29 06:17:30;;;;;;;;;;;;;;;24.34;45.33;100568.92;108613;1260;124759;-86
2023/07/29 06:23:20;;;;;;;;;;;;;;;23.72;46.71;100570.45;108745;1260;125349;-89
2023/07/29 06:29:20;;;;;;;;;;;;;;;23.39;47.63;100567.56;108886;1260;71695;-91
2023/07/29 06:31:51;;;;;;;;;;;;;;;23.25;48.14;100573.15;108792;1260;59923;-85
2023/07/29 06:34:25;;;;;;;;;;;;;;;23.12;48.63;100576.77;108775;1260;60076;-88
2023/07/29 06:36:54;;;;;;;;;;;;;;;23.03;49.05;100573.80;108668;1260;124469;-89
2023/07/29 06:39:24;;;;;;;;;;;;;;;22.97;49.29;100578.79;108720;1260;65274;-88
2023/07/29 06:41:51;;;;;;;;;;;;;;;22.93;49.53;100575.88;108714;1260;124701;-88
2023/07/29 06:44:30;;;;;;;;;;;;;;;22.86;49.80;100581.27;108854;1260;59890;-85
2023/07/29 06:46:58;;;;;;;;;;;;;;;22.72;50.08;100577.71;108754;1260;60500;-86
2023/07/29 06:49:27;;;;;;;;;;;;;;;22.64;50.37;100574.02;108764;1260;124447;-88
2023/07/29 06:51:58;;;;;;;;;;;;;;;22.61;50.62;100574.80;108875;1261;67169;-87
2023/07/29 06:54:28;;;;;;;;;;;;;;;22.56;50.69;100574.40;108650;1260;124757;-85
2023/07/29 06:56:55;;;;;;;;;;;;;;;22.50;50.83;100570.63;108594;1260;61012;-86
2023/07/29 06:59:24;;;;;;;;;;;;;;;22.44;51.10;100568.28;108537;1261;124617;-87
2023/07/29 07:01:55;;;;;;;;;;;;;;;22.41;51.17;100563.00;108716;1260;75581;-84
2023/07/29 07:04:29;;;;;;;;;;;;;;;22.38;51.05;100561.48;108740;1260;67098;-85
2023/07/29 07:07:04;;;;;;;;;;;;;;;22.33;51.30;100559.13;108772;1260;124584;-90
2023/07/29 07:10:09;;;;;;;;;;;;;;;22.35;51.61;100561.04;108494;1267;59909;-90
2023/07/29 07:12:38;;;;;;;;;;;;;;;22.37;52.05;100555.95;108225;1267;124568;-85
2023/07/29 07:15:06;;;;;;;;;;;;;;;22.43;52.07;100556.15;108269;1267;75501;-89
2023/07/29 07:23:51;;;;;;;;;;;;;;;22.56;51.69;100560.45;108349;1267;124759;-93
2023/07/29 07:26:36;;;;;;;;;;;;;;;22.62;51.82;100556.52;108208;1267;60279;-90
2023/07/29 07:29:03;;;;;;;;;;;;;;;22.66;51.87;100556.77;108233;1267;75551;-82
2023/07/29 07:31:32;;;;;;;;;;;;;;;22.72;51.90;100553.75;108140;1267;124361;-82
2023/07/29 07:34:02;;;;;;;;;;;;;;;22.78;51.66;100551.27;108108;1267;72239;-84
2023/07/29 07:36:30;;;;;;;;;;;;;;;22.82;51.40;100556.85;108152;1267;124739;-83
2023/07/29 07:39:00;;;;;;;;;;;;;;;22.88;50.82;100553.98;108229;1267;59934;-83
2023/07/29 07:41:27;;;;;;;;;;;;;;;22.97;50.46;100546.58;108117;1267;124840;-82
2023/07/29 07:43:55;;;;;;;;;;;;;;;23.04;49.75;100541.92;108279;1267;64787;-84
2023/07/29 07:46:22;;;;;;;;;;;;;;;23.11;48.99;100546.55;108295;1267;72706;-83
2023/07/29 07:48:54;;;;;;;;;;;;;;;23.13;48.56;100543.27;108327;1267;124949;-90
2023/07/29 07:51:22;;;;;;;;;;;;;;;23.16;48.46;100536.92;108288;1267;60262;-83
2023/07/29 07:53:49;;;;;;;;;;;;;;;23.21;48.41;100538.02;108312;1267;124985;-89
2023/07/29 07:56:18;;;;;;;;;;;;;;;23.25;48.57;100534.66;108456;1265;65829;-89
2023/07/29 07:58:52;;;;;;;;;;;;;;;23.33;48.39;100537.48;108410;1266;72140;-93
2023/07/29 08:01:27;;;;;;;;;;;;;;;23.41;48.44;100541.86;108606;1262;125163;-86
2023/07/29 08:03:54;;;;;;;;;;;;;;;23.53;48.54;100543.11;108838;1260;60237;-90
2023/07/29 08:06:42;;;;;;;;;;;;;;;23.62;48.03;100541.92;108704;1260;124425;-93
2023/07/29 08:09:19;;;;;;;;;;;;;;;23.71;47.74;100537.17;108901;1261;67095;-85
2023/07/29 08:11:59;;;;;;;;;;;;;;;23.76;47.57;100535.02;108755;1261;125024;-92
2023/07/29 08:14:26;;;;;;;;;;;;;;;23.81;47.46;100531.50;108794;1260;59855;-86
2023/07/29 08:16:55;;;;;;;;;;;;;;;23.85;47.24;100533.14;108883;1262;60207;-87
2023/07/29 08:19:45;;;;;;;;;;;;;;;23.89;47.04;100531.75;108913;1260;74066;-84
2023/07/29 08:25:34;;;;;;;;;;;;;;;24.00;46.91;100531.20;108860;1260;123103;-91
2023/07/29 08:28:34;;;;;;;;;;;;;;;24.07;47.00;100529.88;108869;1261;59792;-89
2023/07/29 08:31:02;;;;;;;;;;;;;;;24.18;46.91;100530.04;108734;1260;124342;-88
2023/07/29 08:33:29;;;;;;;;;;;;;;;24.23;46.84;100527.38;108789;1262;74201;-88
2023/07/29 08:39:31;;;;;;;;;;;;;;;24.39;46.70;100523.73;108841;1260;72533;-85
2023/07/29 08:42:10;;;;;;;;;;;;;;;24.50;46.51;100522.65;108731;1260;124842;-87
2023/07/29 08:45:26;;;;;;;;;;;;;;;24.62;46.44;100524.37;108964;1260;59811;-85
2023/07/29 08:47:54;;;;;;;;;;;;;;;24.71;46.20;100519.75;108874;1260;123448;-88
2023/07/29 08:53:48;;;;;;;;;;;;;;;24.83;45.32;100513.53;108721;1260;125412;-88
2023/07/29 08:56:30;;;;;;;;;;;;;;;24.88;45.29;100514.63;108949;1261;59660;-90
2023/07/29 08:59:10;;;;;;;;;;;;;;;;;;;;;
2023/07/29 09:01:59;;;;;;;;;;;;;;;24.96;45.19;100519.70;108835;1260;124827;-86
2023/07/29 09:04:58;;;;;;;;;;;;;;;24.97;45.20;100514.27;108857;1262;67052;-94
2023/07/29 09:07:28;;;;;;;;;;;;;;;24.99;44.93;100512.40;108692;1262;124648;-94
2023/07/29 09:09:55;;;;;;;;;;;;;;;24.99;44.68;100519.04;108751;1262;59899;-86
2023/07/29 09:12:40;;;;;;;;;;;;;;;24.96;44.37;100515.57;108704;1262;123240;-94
2023/07/29 09:15:34;;;;;;;;;;;;;;;24.92;44.14;100516.42;108633;1262;74282;-86
2023/07/29 09:21:31;;;;;;;;;;;;;;;24.78;43.79;100523.58;108284;1268;72518;-90
2023/07/29 09:24:20;;;;;;;;;;;;;;;24.77;44.07;100523.45;108040;1270;124699;-92
2023/07/29 09:26:57;;;;;;;;;;;;;;;24.78;43.94;100518.61;108358;1269;59824;-85
2023/07/29 09:29:31;;;;;;;;;;;;;;;24.77;43.83;100519.52;108080;1268;124999;-85
2023/07/29 09:32:22;;;;;;;;;;;;;;;24.72;43.75;100517.71;108235;1268;67244;-85
2023/07/29 09:34:51;;;;;;;;;;;;;;;24.72;44.00;100515.21;108388;1269;72446;-85
2023/07/29 09:37:23;;;;;;;;;;;;;;;24.75;43.72;100511.89;107969;1269;124683;-87
2023/07/29 09:39:52;;;;;;;;;;;;;;;24.74;43.14;100513.17;108194;1269;59913;-86
2023/07/29 09:42:21;;;;;;;;;;;;;;;24.75;42.88;100516.36;108180;1269;124724;-84
2023/07/29 09:44:53;;;;;;;;;;;;;;;24.76;42.49;100513.83;108344;1269;67122;-86
2023/07/29 09:47:31;;;;;;;;;;;;;;;24.76;42.27;100514.00;108138;1270;71485;-87
2023/07/29 09:49:58;;;;;;;;;;;;;;;24.76;42.19;100512.55;108176;1269;60021;-82
2023/07/29 09:52:27;;;;;;;;;;;;;;;24.74;41.89;100512.44;108137;1269;60110;-82
2023/07/29 09:55:01;;;;;;;;;;;;;;;24.75;42.12;100511.15;108233;1262;124722;-90
2023/07/29 09:57:42;;;;;;;;;;;;;;;24.76;42.05;100511.50;108845;1262;67060;-90
2023/07/29 10:00:12;;;;;;;;;;;;;;;24.73;41.91;100504.77;108607;1261;124175;-89
2023/07/29 10:02:42;;;;;;;;;;;;;;;24.76;42.36;100504.86;108717;1261;59754;-82
2023/07/29 10:05:23;;;;;;;;;;;;;;;24.79;42.77;100500.42;108629;1264;60390;-86
2023/07/29 10:07:54;;;;;;;;;;;;;;;24.83;42.57;100491.46;108765;1263;75978;-84
2023/07/29 10:10:22;;;;;;;;;;;;;;;24.86;42.68;100503.02;108797;1262;67118;-91
2023/07/29 10:12:50;;;;;;;;;;;;;;;24.91;42.52;100500.16;108631;1262;124625;-91
2023/07/29 10:15:19;;;;;;;;;;;;;;;24.97;42.60;100496.52;108736;1264;59789;-85
2023/07/29 10:17:49;;;;;;;;;;;;;;;25.03;42.50;100493.05;108635;1261;125013;-85
2023/07/29 10:20:24;;;;;;;;;;;;;;;25.06;42.00;100485.38;108877;1261;74246;-86
2023/07/29 10:22:52;;;;;;;;;;;;;;;25.06;42.11;100485.20;108751;1261;65796;-84
2023/07/29 10:25:24;;;;;;;;;;;;;;;25.10;42.06;100482.37;108608;1262;124412;-90
2023/07/29 10:28:12;;;;;;;;;;;;;;;25.12;42.12;100475.08;108802;1262;59794;-91
2023/07/29 10:30:47;;;;;;;;;;;;;;;25.17;42.06;100477.03;108713;1261;124522;-84
2023/07/29 10:33:23;;;;;;;;;;;;;;;25.23;42.29;100473.60;108816;1262;74220;-90
2023/07/29 10:35:53;;;;;;;;;;;;;;;25.29;42.30;100474.46;108680;1262;124616;-83
2023/07/29 10:38:39;;;;;;;;;;;;;;;25.32;41.94;100469.29;108725;1262;73645;-87
2023/07/29 10:41:22;;;;;;;;;;;;;;;25.31;41.67;100477.77;108790;1262;59768;-84
2023/07/29 10:43:51;;;;;;;;;;;;;;;25.28;41.06;100477.58;108578;1262;124310;-87
2023/07/29 10:46:20;;;;;;;;;;;;;;;25.22;40.83;100479.70;108859;1261;75546;-86
2023/07/29 10:49:00;;;;;;;;;;;;;;;25.21;41.35;100476.54;108559;1262;124425;-84
2023/07/29 10:51:36;;;;;;;;;;;;;;;25.24;41.37;100472.51;108470;1262;294814;-89
2023/07/29 11:00:40;;;;;;;;;;;;;;;25.21;40.88;100466.11;108783;1262;124687;-86
2023/07/29 11:07:01;;;;;;;;;;;;;;;25.34;41.18;100456.84;108779;1260;124662;-84
2023/07/29 11:20:20;;;;;;;;;;;;;;;25.76;40.84;100447.54;108959;1261;66080;-90
2023/07/29 11:22:55;;;;;;;;;;;;;;;25.87;40.47;100446.70;108797;1260;72744;-90
2023/07/29 11:25:25;;;;;;;;;;;;;;;25.97;40.70;100443.05;108637;1260;124381;-85
2023/07/29 11:28:00;;;;;;;;;;;;;;;26.06;40.37;100439.59;108857;1260;60123;-86
2023/07/29 11:31:01;;;;;;;;;;;;;;;26.14;40.30;100439.42;108794;1260;124473;-86
2023/07/29 11:33:38;;;;;;;;;;;;;;;26.24;40.16;100441.65;108783;1261;66285;-86
2023/07/29 11:36:19;;;;;;;;;;;;;;;26.31;39.89;100434.71;108554;1262;124887;-86
2023/07/29 11:38:59;;;;;;;;;;;;;;;26.40;39.71;100438.79;108837;1260;59940;-89
2023/07/29 11:41:44;;;;;;;;;;;;;;;26.51;39.39;100438.30;108870;1261;59942;-85
2023/07/29 11:50:59;;;;;;;;;;;;;;;27.34;38.55;100436.15;108901;1261;71404;-88
2023/07/29 11:53:30;;;;;;;;;;;;;;;27.71;38.44;100430.86;108905;1260;59972;-84
2023/07/29 11:55:58;;;;;;;;;;;;;;;28.04;38.74;100432.63;108591;1260;125429;-86
2023/07/29 11:58:26;;;;;;;;;;;;;;;28.32;38.34;100426.27;108776;1261;74298;-86
2023/07/29 12:00:53;;;;;;;;;;;;;;;28.45;38.17;100422.66;108703;1262;124508;-86
2023/07/29 12:03:32;;;;;;;;;;;;;;;28.48;37.96;100419.59;108781;1262;70234;-85
2023/07/29 12:05:59;;;;;;;;;;;;;;;28.45;37.52;100412.37;108734;1261;125003;-86
2023/07/29 12:08:28;;;;;;;;;;;;;;;28.39;37.35;100410.55;108675;1262;59989;-87
2023/07/29 12:11:25;;;;;;;;;;;;;;;28.30;37.16;100410.89;108715;1262;77344;-85
2023/07/29 12:13:55;;;;;;;;;;;;;;;28.08;36.86;100408.09;108668;1261;124682;-85
2023/07/29 12:16:34;;;;;;;;;;;;;;;27.88;36.89;100406.41;108564;1262;73350;-86
2023/07/29 12:32:16;;;;;;;;;;;;;;;27.13;38.47;100384.21;108861;1262;73627;-89
2023/07/29 12:35:05;;;;;;;;;;;;;;;27.08;38.73;100381.42;108801;1262;60312;-91
2023/07/29 12:37:42;;;;;;;;;;;;;;;27.05;38.82;100377.94;108799;1261;124427;-90
2023/07/29 12:40:31;;;;;;;;;;;;;;;27.07;38.55;100379.33;108953;1262;73925;-89
2023/07/29 12:46:20;;;;;;;;;;;;;;;27.03;38.41;100373.55;108878;1264;71503;-87
2023/07/29 12:48:53;;;;;;;;;;;;;;;26.99;38.56;100378.29;108768;1262;124550;-91
2023/07/29 12:51:43;;;;;;;;;;;;;;;27.01;38.90;100374.21;108776;1262;60132;-90
2023/07/29 13:04:30;;;;;;;;;;;;;;;27.53;39.43;100367.30;108948;1261;59750;-86
2023/07/29 13:07:10;;;;;;;;;;;;;;;27.64;39.30;100372.45;108653;1262;124534;-85
2023/07/29 13:09:59;;;;;;;;;;;;;;;27.73;39.52;100370.91;108873;1260;73985;-87
2023/07/29 13:12:40;;;;;;;;;;;;;;;27.91;39.40;100368.71;108797;1262;124604;-88
2023/07/29 13:15:07;;;;;;;;;;;;;;;28.11;39.21;100365.34;108778;1262;72580;-86
2023/07/29 13:17:41;;;;;;;;;;;;;;;28.29;39.02;100366.17;108925;1261;59735;-87
2023/07/29 13:23:48;;;;;;;;;;;;;;;28.77;38.64;100355.57;109025;1262;74518;-86
2023/07/29 13:26:22;;;;;;;;;;;;;;;28.87;38.61;100355.88;108794;1260;65874;-85
2023/07/29 13:28:50;;;;;;;;;;;;;;;28.89;38.44;100359.77;108901;1262;73933;-85
2023/07/29 13:31:20;;;;;;;;;;;;;;;28.94;38.39;100358.44;108799;1262;124444;-86
2023/07/29 13:33:53;;;;;;;;;;;;;;;28.98;38.52;100359.05;108791;1261;59821;-91
2023/07/29 13:36:28;;;;;;;;;;;;;;;29.10;38.57;100353.86;108672;1262;125384;-87
2023/07/29 13:39:04;;;;;;;;;;;;;;;29.14;38.50;100350.58;108914;1262;60020;-85
2023/07/29 13:42:06;;;;;;;;;;;;;;;29.16;38.33;100345.05;108639;1262;124924;-86
2023/07/29 13:44:48;;;;;;;;;;;;;;;29.12;38.23;100341.26;108905;1262;59760;-91
2023/07/29 13:47:22;;;;;;;;;;;;;;;29.05;38.19;100334.59;108683;1262;59745;-91
2023/07/29 13:50:27;;;;;;;;;;;;;;;29.00;38.41;100337.64;108753;1262;124715;-85
2023/07/29 13:52:58;;;;;;;;;;;;;;;28.99;38.76;100333.37;108923;1261;59784;-93
2023/07/29 14:02:12;;;;;;;;;;;;;;;29.05;38.94;100310.80;108832;1262;124383;-90
2023/07/29 14:04:43;;;;;;;;;;;;;;;29.14;38.98;100306.47;108799;1262;75039;-92
2023/07/29 14:07:20;;;;;;;;;;;;;;;29.22;39.01;100306.17;108729;1262;124501;-92
2023/07/29 14:10:21;;;;;;;;;;;;;;;29.31;38.93;100306.20;108811;1262;70693;-90
2023/07/29 14:12:51;;;;;;;;;;;;;;;29.35;38.79;100305.43;108792;1262;123348;-91
2023/07/29 14:15:40;;;;;;;;;;;;;;;29.37;38.95;100299.30;108763;1265;59932;-89
2023/07/29 14:18:37;;;;;;;;;;;;;;;29.39;38.75;100301.89;108583;1265;124730;-85
2023/07/29 14:21:40;;;;;;;;;;;;;;;29.41;38.90;100303.80;108807;1265;60099;-89
2023/07/29 14:30:15;;;;;;;;;;;;;;;29.44;38.63;100298.89;108738;1265;123541;-89
2023/07/29 14:33:10;;;;;;;;;;;;;;;29.40;38.30;100297.73;108707;1265;74090;-92
2023/07/29 14:35:53;;;;;;;;;;;;;;;29.33;38.24;100294.73;108847;1265;67126;-90
2023/07/29 14:41:50;;;;;;;;;;;;;;;29.21;38.50;100276.09;108835;1264;59700;-88
2023/07/29 14:44:33;;;;;;;;;;;;;;;29.23;38.63;100272.34;108678;1265;125414;-87
2023/07/29 14:47:37;;;;;;;;;;;;;;;29.21;38.67;100263.09;108724;1265;75772;-87
2023/07/29 14:50:25;;;;;;;;;;;;;;;29.21;38.66;100260.73;108743;1265;124448;-89
2023/07/29 14:52:58;;;;;;;;;;;;;;;29.17;38.82;100256.44;108829;1264;64123;-90
2023/07/29 14:55:28;;;;;;;;;;;;;;;29.11;38.90;100252.27;108589;1262;123381;-88
2023/07/29 14:57:55;;;;;;;;;;;;;;;29.01;38.92;100245.98;108902;1262;59881;-91
2023/07/29 15:00:44;;;;;;;;;;;;;;;28.95;39.10;100243.30;108852;1262;123473;-91
2023/07/29 15:06:26;;;;;;;;;;;;;;;28.91;39.35;100236.67;108829;1266;124718;-90
2023/07/29 15:09:04;;;;;;;;;;;;;;;28.92;39.26;100229.02;108884;1262;59322;-93
2023/07/29 15:11:44;;;;;;;;;;;;;;;28.96;39.21;100233.27;109043;1260;60717;-90
2023/07/29 15:14:14;;;;;;;;;;;;;;;29.04;39.30;100229.91;108750;1260;123463;-88
2023/07/29 15:16:48;;;;;;;;;;;;;;;29.13;39.41;100232.46;108739;1268;68822;-88
2023/07/29 15:19:42;;;;;;;;;;;;;;;29.17;39.32;100224.48;108742;1260;125146;-90